Time;durP1;ratioP1;P1;durP2;ratioP2;P2;SDS_P1;SDS_P2;PMS_P1;PMS_P2;Temp;Humidity;BMP_temperature;BMP_pressure;BME280_temperature;BME280_humidity;BME280_pressure;Samples;Min_cycle;Max_cycle;Signal;HPM_P1;HPM_P2
2023/08/04 00:01:30;;;;;;;6.65;1.90;;;19.40;99.90;;;;;;5070997;28;20231;-82
2023/08/04 00:04:20;;;;;;;5.15;1.80;;;19.40;99.90;;;;;;5062673;28;20223;-83
2023/08/04 00:07:09;;;;;;;3.97;1.75;;;19.40;99.90;;;;;;5061710;28;20464;-82
2023/08/04 00:10:01;;;;;;;4.13;1.80;;;19.30;99.90;;;;;;5051031;28;20235;-83
2023/08/04 00:12:50;;;;;;;7.30;2.15;;;19.30;99.90;;;;;;5062668;28;20443;-83
2023/08/04 00:15:39;;;;;;;5.45;1.70;;;19.30;99.90;;;;;;5043674;28;20602;-84
2023/08/04 00:18:28;;;;;;;5.03;2.05;;;19.30;99.90;;;;;;5039805;28;20358;-78
2023/08/04 00:21:17;;;;;;;5.68;1.98;;;19.30;99.90;;;;;;5049693;28;20231;-78
2023/08/04 00:24:05;;;;;;;6.25;1.80;;;19.30;99.90;;;;;;5066370;28;20272;-78
2023/08/04 00:26:56;;;;;;;6.60;2.08;;;19.30;99.90;;;;;;5062216;28;20219;-78
2023/08/04 00:29:45;;;;;;;5.13;2.13;;;19.20;99.90;;;;;;5061491;28;20311;-80
2023/08/04 00:32:34;;;;;;;6.00;1.92;;;19.20;99.90;;;;;;5049170;28;20681;-82
2023/08/04 00:35:23;;;;;;;3.90;1.83;;;19.20;99.90;;;;;;5036151;28;20294;-83
2023/08/04 00:38:12;;;;;;;3.60;1.67;;;19.20;99.90;;;;;;5046974;28;20869;-83
2023/08/04 00:41:01;;;;;;;2.50;1.63;;;19.20;99.90;;;;;;5058173;28;20302;-83
2023/08/04 00:43:51;;;;;;;5.70;2.15;;;19.20;99.90;;;;;;5043571;28;20225;-80
2023/08/04 00:46:40;;;;;;;6.88;1.70;;;19.20;99.90;;;;;;5049276;28;20257;-80
2023/08/04 00:49:30;;;;;;;5.13;2.00;;;19.10;99.90;;;;;;5052439;28;20301;-81
2023/08/04 00:52:19;;;;;;;3.88;1.65;;;19.20;99.90;;;;;;5058276;28;20232;-81
2023/08/04 00:55:09;;;;;;;4.03;1.88;;;19.20;99.90;;;;;;5045193;28;20232;-80
2023/08/04 00:57:59;;;;;;;3.60;1.85;;;19.10;99.90;;;;;;5057743;28;20224;-81
2023/08/04 01:00:49;;;;;;;4.25;2.00;;;19.10;99.90;;;;;;5060663;28;20251;-80
2023/08/04 01:03:39;;;;;;;5.38;2.20;;;19.10;99.90;;;;;;5034597;28;20351;-81
2023/08/04 01:06:44;;;;;;;6.22;2.05;;;19.10;99.90;;;;;;5061701;28;20265;-81
2023/08/04 01:09:40;;;;;;;3.75;1.80;;;19.00;99.90;;;;;;5051308;28;20224;-81
2023/08/04 01:12:45;;;;;;;5.05;1.63;;;19.10;99.90;;;;;;5053199;28;20238;-81
2023/08/04 01:15:36;;;;;;;6.20;2.13;;;19.10;99.90;;;;;;5053081;28;20231;-81
2023/08/04 01:18:26;;;;;;;4.50;2.25;;;19.00;99.90;;;;;;5046807;28;20290;-81
2023/08/04 01:21:17;;;;;;;3.58;1.75;;;19.00;99.90;;;;;;5047896;28;20220;-80
2023/08/04 01:24:06;;;;;;;4.88;1.95;;;19.00;99.90;;;;;;5056769;28;20228;-81
2023/08/04 01:26:56;;;;;;;6.53;1.80;;;18.90;99.90;;;;;;5063879;28;20209;-81
2023/08/04 01:29:46;;;;;;;5.93;1.73;;;19.00;99.90;;;;;;5056005;28;20315;-79
2023/08/04 01:32:35;;;;;;;4.50;2.13;;;19.00;99.90;;;;;;5064014;28;20281;-78
2023/08/04 01:35:24;;;;;;;5.50;1.70;;;19.00;99.90;;;;;;5054158;28;20217;-78
2023/08/04 01:38:14;;;;;;;4.80;1.60;;;18.90;99.90;;;;;;5036092;28;20231;-78
2023/08/04 01:41:05;;;;;;;3.65;1.80;;;18.90;99.90;;;;;;5052688;28;20239;-79
2023/08/04 01:43:54;;;;;;;7.68;1.70;;;18.90;99.90;;;;;;5063574;28;20350;-80
2023/08/04 01:46:43;;;;;;;4.03;2.10;;;18.90;99.90;;;;;;5040719;28;20227;-80
2023/08/04 01:49:32;;;;;;;6.72;2.10;;;18.90;99.90;;;;;;5061525;28;20894;-80
2023/08/04 01:52:22;;;;;;;6.13;1.77;;;18.80;99.90;;;;;;5066311;28;20231;-82
2023/08/04 01:55:12;;;;;;;5.25;1.95;;;18.80;99.90;;;;;;5058384;28;20271;-83
2023/08/04 01:58:01;;;;;;;2.50;1.70;;;18.70;99.90;;;;;;5053123;28;20217;-77
2023/08/04 02:00:52;;;;;;;6.22;1.75;;;18.80;99.90;;;;;;5054833;28;20305;-77
2023/08/04 02:03:41;;;;;;;4.15;1.75;;;18.80;99.90;;;;;;5060609;28;20477;-79
2023/08/04 02:06:33;;;;;;;5.18;2.30;;;18.70;99.90;;;;;;5047791;28;20229;-80
2023/08/04 02:09:22;;;;;;;5.72;2.30;;;18.70;99.90;;;;;;5043644;28;20255;-81
2023/08/04 02:12:13;;;;;;;2.67;1.58;;;18.70;99.90;;;;;;5062689;28;20633;-80
2023/08/04 02:15:02;;;;;;;3.42;1.88;;;18.70;99.90;;;;;;5041361;28;20592;-80
2023/08/04 02:17:51;;;;;;;4.32;1.88;;;18.70;99.90;;;;;;5045215;28;20217;-80
2023/08/04 02:20:40;;;;;;;5.05;1.92;;;18.70;99.90;;;;;;5051560;28;20221;-81
2023/08/04 02:23:28;;;;;;;6.45;2.05;;;18.70;99.90;;;;;;5051895;28;20702;-81
2023/08/04 02:26:17;;;;;;;5.40;2.05;;;18.60;99.90;;;;;;5048901;28;20233;-81
2023/08/04 02:29:07;;;;;;;4.57;1.92;;;18.60;99.90;;;;;;5059288;28;20223;-78
2023/08/04 02:31:56;;;;;;;3.70;1.80;;;18.60;99.90;;;;;;5045386;28;20216;-80
2023/08/04 02:34:45;;;;;;;6.47;2.10;;;18.60;99.90;;;;;;5057523;28;20856;-80
2023/08/04 02:37:34;;;;;;;7.30;1.90;;;18.50;99.90;;;;;;5040746;28;20228;-80
2023/08/04 02:40:23;;;;;;;3.47;1.80;;;18.50;99.90;;;;;;5045543;28;20284;-80
2023/08/04 02:43:12;;;;;;;5.28;2.17;;;18.50;99.90;;;;;;5058788;28;20220;-78
2023/08/04 02:46:02;;;;;;;6.22;2.13;;;18.40;99.90;;;;;;5058799;28;20726;-79
2023/08/04 02:48:51;;;;;;;4.05;1.83;;;18.40;99.90;;;;;;5048398;28;20265;-80
2023/08/04 02:51:40;;;;;;;4.72;1.90;;;18.50;99.90;;;;;;5041666;28;20234;-80
2023/08/04 02:54:29;;;;;;;3.50;1.98;;;18.40;99.90;;;;;;5048722;28;20267;-80
2023/08/04 02:57:18;;;;;;;5.40;2.00;;;18.40;99.90;;;;;;5045080;28;20244;-81
2023/08/04 03:00:08;;;;;;;4.95;1.63;;;18.50;99.90;;;;;;5061913;28;20219;-84
2023/08/04 03:03:00;;;;;;;5.85;1.92;;;18.50;99.90;;;;;;5058643;28;20243;-83
2023/08/04 03:05:49;;;;;;;7.18;2.28;;;18.40;99.90;;;;;;5072635;28;20284;-84
2023/08/04 03:08:37;;;;;;;4.60;2.00;;;18.30;99.90;;;;;;5060474;28;20228;-85
2023/08/04 03:11:26;;;;;;;5.38;1.80;;;18.30;99.90;;;;;;5070196;28;20366;-85
2023/08/04 03:14:15;;;;;;;5.85;2.00;;;18.30;99.90;;;;;;5077464;28;20725;-84
2023/08/04 03:17:05;;;;;;;4.85;1.95;;;18.30;99.90;;;;;;5076536;28;20661;-83
2023/08/04 03:19:55;;;;;;;7.80;2.20;;;18.30;99.90;;;;;;5082398;28;20219;-82
2023/08/04 03:22:44;;;;;;;5.00;2.30;;;18.30;99.90;;;;;;5081752;28;20218;-83
2023/08/04 03:25:34;;;;;;;4.80;2.17;;;18.30;99.90;;;;;;5064441;28;20240;-83
2023/08/04 03:28:22;;;;;;;5.22;1.90;;;18.20;99.90;;;;;;5081845;28;20255;-82
2023/08/04 03:31:12;;;;;;;5.97;1.90;;;18.30;99.90;;;;;;5092907;28;20241;-84
2023/08/04 03:34:00;;;;;;;8.32;1.83;;;18.30;99.90;;;;;;5072111;28;20406;-84
2023/08/04 03:36:51;;;;;;;7.60;2.45;;;18.30;99.90;;;;;;5072171;28;20223;-83
2023/08/04 03:39:41;;;;;;;4.22;1.90;;;18.40;99.90;;;;;;5079301;28;20215;-83
2023/08/04 03:42:30;;;;;;;4.88;2.10;;;18.50;99.90;;;;;;5062557;28;20358;-83
2023/08/04 03:45:19;;;;;;;6.50;2.03;;;18.50;99.90;;;;;;5079443;28;20219;-84
2023/08/04 03:48:08;;;;;;;6.03;2.20;;;18.50;99.90;;;;;;5065734;28;20972;-85
2023/08/04 03:50:57;;;;;;;4.18;1.67;;;18.60;99.90;;;;;;5083389;28;20215;-85
2023/08/04 03:53:47;;;;;;;5.00;2.53;;;18.60;99.90;;;;;;5088807;28;20223;-85
2023/08/04 03:56:36;;;;;;;5.68;2.10;;;18.60;99.90;;;;;;5060980;28;20738;-83
2023/08/04 03:59:24;;;;;;;3.63;2.20;;;18.60;99.90;;;;;;5075321;28;20227;-84
2023/08/04 04:02:13;;;;;;;5.63;2.40;;;18.60;99.90;;;;;;5077153;28;20302;-84
2023/08/04 04:05:03;;;;;;;5.15;2.10;;;18.60;99.90;;;;;;5091338;28;20768;-79
2023/08/04 04:07:52;;;;;;;3.30;2.13;;;18.50;99.90;;;;;;5088082;28;20219;-86
2023/08/04 04:10:42;;;;;;;6.82;2.55;;;18.50;99.90;;;;;;5072037;28;20738;-86
2023/08/04 04:13:31;;;;;;;8.77;2.28;;;18.70;99.90;;;;;;5074298;28;20227;-85
2023/08/04 04:16:20;;;;;;;7.88;2.10;;;18.80;99.90;;;;;;5079993;28;20234;-84
2023/08/04 04:19:10;;;;;;;6.70;2.00;;;18.90;99.90;;;;;;5078054;28;20223;-85
2023/08/04 04:22:00;;;;;;;5.35;1.90;;;18.90;99.90;;;;;;5070938;28;20223;-84
2023/08/04 04:24:50;;;;;;;4.90;2.03;;;19.00;99.90;;;;;;5080650;28;20303;-84
2023/08/04 04:27:41;;;;;;;6.43;1.98;;;19.10;99.90;;;;;;5077471;28;20725;-85
2023/08/04 04:30:29;;;;;;;5.45;2.13;;;19.10;99.90;;;;;;5087907;28;20266;-84
2023/08/04 04:33:18;;;;;;;5.75;2.40;;;19.10;99.90;;;;;;5059535;28;20231;-82
2023/08/04 04:36:11;;;;;;;5.32;1.90;;;19.30;99.90;;;;;;5083668;28;20241;-84
2023/08/04 04:39:00;;;;;;;3.50;1.77;;;19.40;99.90;;;;;;5084024;28;20267;-81
2023/08/04 04:41:49;;;;;;;5.15;2.10;;;19.60;99.90;;;;;;5080931;28;20713;-84
2023/08/04 04:44:40;;;;;;;4.63;1.85;;;19.60;99.90;;;;;;5074070;28;20223;-80
2023/08/04 04:47:29;;;;;;;4.40;2.00;;;19.60;99.90;;;;;;5086869;28;20230;-82
2023/08/04 04:50:18;;;;;;;5.13;2.28;;;19.50;99.90;;;;;;5069672;28;20356;-82
2023/08/04 04:53:07;;;;;;;5.75;2.25;;;19.40;99.90;;;;;;5059889;28;20220;-83
2023/08/04 04:55:57;;;;;;;3.45;1.83;;;19.40;99.90;;;;;;5084669;28;20223;-84
2023/08/04 04:58:46;;;;;;;5.45;2.33;;;19.40;99.90;;;;;;5076734;28;20686;-85
2023/08/04 05:01:36;;;;;;;8.98;2.38;;;19.40;99.90;;;;;;5088225;28;20971;-84
2023/08/04 05:04:25;;;;;;;6.13;2.15;;;19.60;99.90;;;;;;5065377;28;20223;-84
2023/08/04 05:07:14;;;;;;;6.85;1.88;;;19.80;99.90;;;;;;5078278;28;20282;-83
2023/08/04 05:10:04;;;;;;;5.45;2.40;;;19.90;99.90;;;;;;5083073;28;20238;-81
2023/08/04 05:12:53;;;;;;;5.28;2.15;;;20.00;99.90;;;;;;5071450;28;20215;-83
2023/08/04 05:15:42;;;;;;;5.35;2.13;;;20.10;99.90;;;;;;5079774;28;20251;-83
2023/08/04 05:18:33;;;;;;;5.30;2.13;;;20.10;99.90;;;;;;5101255;28;20305;-81
2023/08/04 05:21:21;;;;;;;3.80;2.00;;;20.20;99.90;;;;;;5087082;28;20227;-83
2023/08/04 05:24:11;;;;;;;9.02;2.13;;;20.30;99.90;;;;;;5091316;28;20228;-84
2023/08/04 05:27:01;;;;;;;5.63;1.60;;;20.40;99.90;;;;;;5081435;28;20721;-83
2023/08/04 05:29:50;;;;;;;8.15;2.20;;;20.50;99.90;;;;;;5067279;28;20235;-83
2023/08/04 05:32:39;;;;;;;3.42;1.88;;;20.70;99.90;;;;;;5069720;28;20703;-82
2023/08/04 05:35:29;;;;;;;3.85;1.88;;;20.80;99.90;;;;;;5069078;28;20231;-83
2023/08/04 05:38:19;;;;;;;3.03;1.60;;;21.00;99.90;;;;;;5072705;28;20350;-84
2023/08/04 05:41:07;;;;;;;4.57;1.70;;;21.10;99.90;;;;;;5081350;28;21103;-86
2023/08/04 05:43:56;;;;;;;2.95;1.67;;;21.00;99.90;;;;;;5085910;28;20220;-83
2023/08/04 05:46:45;;;;;;;5.72;1.90;;;20.90;99.90;;;;;;5081497;28;20238;-85
2023/08/04 05:49:34;;;;;;;3.33;1.63;;;20.80;99.90;;;;;;5080250;28;20240;-84
2023/08/04 05:52:24;;;;;;;4.72;1.80;;;20.80;99.90;;;;;;5077869;28;20219;-84
2023/08/04 05:55:13;;;;;;;5.35;1.60;;;20.90;99.90;;;;;;5083280;28;20215;-85
2023/08/04 05:58:02;;;;;;;3.80;1.70;;;20.90;99.90;;;;;;5086856;28;20227;-83
2023/08/04 06:00:52;;;;;;;5.72;1.77;;;20.80;99.90;;;;;;5085826;28;20250;-83
2023/08/04 06:03:43;;;;;;;4.40;1.52;;;21.00;99.90;;;;;;5061221;28;20242;-80
2023/08/04 06:06:32;;;;;;;2.20;1.70;;;20.90;99.90;;;;;;5072796;28;20320;-82
2023/08/04 06:09:22;;;;;;;4.43;1.90;;;20.90;99.90;;;;;;5076131;28;20315;-79
2023/08/04 06:12:11;;;;;;;4.20;1.83;;;20.90;99.90;;;;;;5069195;28;20292;-80
2023/08/04 06:15:00;;;;;;;3.22;1.50;;;21.10;99.90;;;;;;5058539;28;20257;-80
2023/08/04 06:17:50;;;;;;;6.65;1.33;;;21.40;99.90;;;;;;5075790;28;20321;-80
2023/08/04 06:20:39;;;;;;;4.05;1.40;;;21.90;99.90;;;;;;5077636;28;20224;-83
2023/08/04 06:23:30;;;;;;;3.30;1.50;;;22.10;99.90;;;;;;5077113;28;20582;-79
2023/08/04 06:26:20;;;;;;;3.53;1.25;;;22.20;99.90;;;;;;5065080;28;20235;-82
2023/08/04 06:29:11;;;;;;;4.65;1.60;;;22.20;99.90;;;;;;5065394;28;20231;-85
2023/08/04 06:32:00;;;;;;;2.97;1.40;;;22.20;99.90;;;;;;5083969;28;20231;-79
2023/08/04 06:34:49;;;;;;;7.13;1.73;;;22.20;99.90;;;;;;5079239;28;20310;-84
2023/08/04 06:37:38;;;;;;;4.85;1.80;;;22.10;99.90;;;;;;5084509;28;20322;-81
2023/08/04 06:40:27;;;;;;;4.72;1.65;;;22.10;99.90;;;;;;5080192;28;20226;-81
2023/08/04 06:43:17;;;;;;;3.10;1.50;;;22.40;99.90;;;;;;5074257;28;20307;-83
2023/08/04 06:46:07;;;;;;;1.98;1.10;;;22.20;99.90;;;;;;5081103;28;20223;-85
2023/08/04 06:48:56;;;;;;;1.92;1.20;;;22.10;99.90;;;;;;5068179;28;20300;-82
2023/08/04 06:51:45;;;;;;;5.07;1.60;;;21.90;99.90;;;;;;5072552;28;20737;-79
2023/08/04 06:54:35;;;;;;;2.17;1.35;;;21.90;99.90;;;;;;5079213;28;20247;-79
2023/08/04 06:57:23;;;;;;;4.47;1.40;;;21.90;99.90;;;;;;5070113;28;20580;-81
2023/08/04 07:00:14;;;;;;;4.60;1.23;;;22.00;99.90;;;;;;5076096;28;20222;-77
2023/08/04 07:03:03;;;;;;;3.47;1.40;;;22.10;99.90;;;;;;5084147;28;20774;-81
2023/08/04 07:05:52;;;;;;;4.82;1.40;;;22.20;99.90;;;;;;5067166;28;20231;-82
2023/08/04 07:08:41;;;;;;;2.22;1.20;;;22.30;99.90;;;;;;5061471;28;20354;-86
2023/08/04 07:11:30;;;;;;;1.77;1.10;;;22.40;99.90;;;;;;5063466;28;20276;-80
2023/08/04 07:14:20;;;;;;;1.92;1.25;;;22.60;99.90;;;;;;5082716;28;20250;-81
2023/08/04 07:17:10;;;;;;;2.67;1.35;;;22.90;99.90;;;;;;5063901;28;20234;-74
2023/08/04 07:19:59;;;;;;;3.03;1.60;;;23.10;99.90;;;;;;5075260;28;20233;-73
2023/08/04 07:22:48;;;;;;;3.28;1.50;;;23.10;99.90;;;;;;5070537;28;20627;-76
2023/08/04 07:25:37;;;;;;;3.53;1.13;;;23.30;99.90;;;;;;5066272;28;20280;-74
2023/08/04 07:28:26;;;;;;;2.53;1.10;;;23.60;99.90;;;;;;5082437;28;20246;-88
2023/08/04 07:31:15;;;;;;;4.80;1.20;;;23.60;99.90;;;;;;5084221;28;20413;-77
2023/08/04 07:34:05;;;;;;;2.50;1.40;;;23.70;99.90;;;;;;5077552;28;20297;-78
2023/08/04 07:36:57;;;;;;;3.50;1.00;;;23.70;99.90;;;;;;5071587;28;20303;-76
2023/08/04 07:39:45;;;;;;;3.67;2.50;;;24.00;99.90;;;;;;5081792;28;20236;-74
2023/08/04 07:42:34;;;;;;;1.60;1.05;;;24.30;99.90;;;;;;5079439;28;20219;-75
2023/08/04 07:45:23;;;;;;;4.28;1.33;;;25.30;99.90;;;;;;5094163;28;20239;-79
2023/08/04 07:48:12;;;;;;;2.70;1.17;;;25.50;99.90;;;;;;5083905;28;20247;-73
2023/08/04 07:51:02;;;;;;;2.58;1.00;;;26.00;99.90;;;;;;5074581;28;20293;-74
2023/08/04 07:53:52;;;;;;;5.40;1.20;;;25.70;99.90;;;;;;5089017;28;20250;-78
2023/08/04 07:56:43;;;;;;;2.95;1.30;;;25.10;99.90;;;;;;5078982;28;20248;-77
2023/08/04 07:59:32;;;;;;;2.85;0.95;;;24.80;99.90;;;;;;5078965;28;20706;-82
2023/08/04 08:02:21;;;;;;;3.30;0.75;;;24.50;99.90;;;;;;5083319;28;20287;-82
2023/08/04 08:05:10;;;;;;;1.58;1.08;;;24.30;99.90;;;;;;5075261;28;20214;-83
2023/08/04 08:08:00;;;;;;;3.13;1.30;;;24.20;99.90;;;;;;5082226;28;20222;-81
2023/08/04 08:10:49;;;;;;;2.45;1.00;;;24.20;99.90;;;;;;5081323;28;20879;-82
2023/08/04 08:13:38;;;;;;;1.58;0.80;;;24.10;99.90;;;;;;5076960;28;20224;-82
2023/08/04 08:16:27;;;;;;;3.05;1.00;;;23.90;99.90;;;;;;5062414;28;20224;-82
2023/08/04 08:19:16;;;;;;;3.30;1.30;;;24.60;99.90;;;;;;5061657;28;20227;-84
2023/08/04 08:22:06;;;;;;;1.45;0.90;;;25.00;99.90;;;;;;5082143;28;20243;-83
2023/08/04 08:24:57;;;;;;;3.17;1.10;;;24.90;99.90;;;;;;5061807;28;20226;-84
2023/08/04 08:27:46;;;;;;;1.45;0.90;;;24.90;99.90;;;;;;5066448;28;20412;-84
2023/08/04 08:30:35;;;;;;;1.85;0.90;;;24.90;99.90;;;;;;5087634;28;20693;-84
2023/08/04 08:33:24;;;;;;;1.80;0.80;;;25.00;99.90;;;;;;5057522;28;20825;-84
2023/08/04 08:36:13;;;;;;;1.23;0.82;;;24.60;99.90;;;;;;5060028;28;20219;-82
2023/08/04 08:39:01;;;;;;;0.98;0.88;;;25.20;99.90;;;;;;5078764;28;20239;-83
2023/08/04 08:41:51;;;;;;;3.05;1.27;;;26.20;99.90;;;;;;5079627;28;21068;-82
2023/08/04 08:44:41;;;;;;;2.08;0.80;;;27.30;99.90;;;;;;5072097;28;20219;-81
2023/08/04 08:47:35;;;;;;;1.70;0.85;;;28.20;99.90;;;;;;5063668;28;20297;-83
2023/08/04 08:50:25;;;;;;;2.00;1.00;;;28.10;99.90;;;;;;5094276;28;20384;-83
2023/08/04 08:53:16;;;;;;;2.53;1.08;;;27.20;99.90;;;;;;5085440;28;20251;-83
2023/08/04 08:56:08;;;;;;;1.58;1.00;;;26.80;99.90;;;;;;5073579;28;20683;-83
2023/08/04 08:58:58;;;;;;;3.72;1.10;;;26.40;99.90;;;;;;5076148;28;20247;-83
2023/08/04 09:01:48;;;;;;;5.32;1.15;;;26.10;99.90;;;;;;5084301;28;20222;-82
2023/08/04 09:04:38;;;;;;;2.70;1.30;;;25.70;99.90;;;;;;5096527;28;20228;-83
2023/08/04 09:07:27;;;;;;;5.10;1.38;;;25.30;99.90;;;;;;5081758;28;20863;-80
2023/08/04 09:10:17;;;;;;;2.47;1.27;;;24.90;99.90;;;;;;5089573;28;20238;-83
2023/08/04 09:13:09;;;;;;;4.55;1.10;;;25.30;99.90;;;;;;5093300;28;20246;-85
2023/08/04 09:15:59;;;;;;;2.45;1.10;;;25.60;99.90;;;;;;5091154;28;20785;-83
2023/08/04 09:18:48;;;;;;;2.35;1.00;;;26.20;99.90;;;;;;5093143;28;20720;-83
2023/08/04 09:21:38;;;;;;;2.42;1.20;;;27.00;99.90;;;;;;5084723;28;20361;-82
2023/08/04 09:24:27;;;;;;;2.97;1.20;;;27.90;99.90;;;;;;5075489;28;20310;-82
2023/08/04 09:27:27;;;;;;;3.10;1.15;;;27.90;99.90;;;;;;5070831;28;20270;-83
2023/08/04 09:30:18;;;;;;;2.40;1.00;;;28.30;99.90;;;;;;5091103;28;20231;-83
2023/08/04 09:33:10;;;;;;;5.78;1.40;;;28.60;99.90;;;;;;5073005;28;20683;-83
2023/08/04 09:36:06;;;;;;;2.65;1.30;;;28.50;99.90;;;;;;5087384;28;20220;-80
2023/08/04 09:39:02;;;;;;;2.67;1.70;;;27.80;99.90;;;;;;5102446;28;20222;-82
2023/08/04 09:41:51;;;;;;;2.50;1.40;;;27.50;99.90;;;;;;5071422;28;20227;-83
2023/08/04 09:44:41;;;;;;;4.13;1.63;;;27.60;99.90;;;;;;5088445;28;20215;-83
2023/08/04 09:47:29;;;;;;;1.55;1.25;;;27.60;99.90;;;;;;5091350;28;20237;-84
2023/08/04 09:50:21;;;;;;;4.65;1.35;;;27.30;99.90;;;;;;5083560;28;20238;-83
2023/08/04 09:53:09;;;;;;;2.85;1.13;;;27.40;99.90;;;;;;5086045;28;20230;-83
2023/08/04 09:55:59;;;;;;;3.20;1.75;;;28.60;99.90;;;;;;5086520;28;20223;-77
2023/08/04 09:58:49;;;;;;;4.15;1.20;;;29.40;99.90;;;;;;5086247;28;20231;-84
2023/08/04 10:01:41;;;;;;;2.28;1.20;;;29.30;99.90;;;;;;5083295;28;20238;-84
2023/08/04 10:04:31;;;;;;;2.08;1.23;;;29.10;99.90;;;;;;5074231;28;20295;-85
2023/08/04 10:07:22;;;;;;;2.67;1.05;;;29.20;99.90;;;;;;5090606;28;20701;-82
2023/08/04 10:10:11;;;;;;;4.72;1.38;;;29.60;99.90;;;;;;5061537;28;20585;-83
2023/08/04 10:13:00;;;;;;;1.70;0.93;;;29.20;99.90;;;;;;5077764;28;20339;-82
2023/08/04 10:15:50;;;;;;;1.88;1.40;;;29.90;99.90;;;;;;5082660;28;20827;-83
2023/08/04 10:18:50;;;;;;;2.35;1.40;;;32.00;99.90;;;;;;5073448;28;20226;-83
2023/08/04 10:21:41;;;;;;;5.97;1.35;;;32.90;97.30;;;;;;5064414;28;20235;-82
2023/08/04 10:24:34;;;;;;;4.50;1.63;;;33.70;93.90;;;;;;5070569;28;20301;-82
2023/08/04 10:27:23;;;;;;;1.67;1.10;;;34.50;93.40;;;;;;5082633;28;20219;-82
2023/08/04 10:30:12;;;;;;;2.22;1.25;;;34.80;91.30;;;;;;5085476;28;20227;-84
2023/08/04 10:33:10;;;;;;;4.93;1.10;;;33.80;91.20;;;;;;5086826;28;20230;-82
2023/08/04 10:36:09;;;;;;;6.03;1.30;;;33.10;91.50;;;;;;5083774;28;20364;-78
2023/08/04 10:38:58;;;;;;;2.08;1.20;;;33.80;91.50;;;;;;5069198;28;20731;-83
2023/08/04 10:41:49;;;;;;;3.80;1.50;;;33.50;90.50;;;;;;5072503;28;20232;-83
2023/08/04 10:44:56;;;;;;;3.25;1.40;;;35.00;89.60;;;;;;5083502;28;20831;-83
2023/08/04 10:47:46;;;;;;;2.67;1.00;;;37.30;82.20;;;;;;5082621;28;20254;-84
2023/08/04 10:50:55;;;;;;;4.78;4.28;;;37.80;77.30;;;;;;5075896;28;20234;-82
2023/08/04 10:53:44;;;;;;;1.98;1.05;;;37.90;75.50;;;;;;5065083;28;20682;-83
2023/08/04 10:56:38;;;;;;;3.63;1.10;;;36.60;78.50;;;;;;5084073;28;20233;-83
2023/08/04 10:59:30;;;;;;;4.10;1.02;;;37.40;75.40;;;;;;5083363;28;20219;-83
2023/08/04 11:02:19;;;;;;;2.30;1.10;;;36.90;77.30;;;;;;5081962;28;20227;-84
2023/08/04 11:05:11;;;;;;;1.65;1.02;;;37.60;76.30;;;;;;5079019;28;20241;-83
2023/08/04 11:08:00;;;;;;;1.70;1.10;;;38.20;73.70;;;;;;5068060;28;20230;-82
2023/08/04 11:10:51;;;;;;;1.98;0.88;;;38.90;69.20;;;;;;5061522;28;20215;-82
2023/08/04 11:13:40;;;;;;;8.73;2.05;;;38.40;69.20;;;;;;5073050;28;20269;-83
2023/08/04 11:16:34;;;;;;;5.07;1.20;;;39.10;67.50;;;;;;5079284;28;20252;-83
2023/08/04 11:19:23;;;;;;;4.50;1.23;;;39.80;66.10;;;;;;5081234;28;20251;-84
2023/08/04 11:22:14;;;;;;;2.28;1.40;;;37.70;67.40;;;;;;5068925;28;20215;-84
2023/08/04 11:25:02;;;;;;;2.45;1.95;;;34.90;71.30;;;;;;5078419;28;20222;-83
2023/08/04 11:27:51;;;;;;;3.03;1.20;;;37.30;73.20;;;;;;5080475;28;20223;-84
2023/08/04 11:30:40;;;;;;;6.28;1.20;;;35.30;69.50;;;;;;5066853;28;20219;-82
2023/08/04 11:33:30;;;;;;;4.53;1.30;;;38.40;68.00;;;;;;5077610;28;20763;-83
2023/08/04 11:36:19;;;;;;;3.38;1.20;;;39.80;68.70;;;;;;5086118;28;20226;-83
2023/08/04 11:39:08;;;;;;;2.13;1.70;;;42.40;63.30;;;;;;5081520;28;20250;-83
2023/08/04 11:41:57;;;;;;;2.40;1.58;;;43.80;64.70;;;;;;5076770;28;20219;-82
2023/08/04 11:44:46;;;;;;;2.90;1.40;;;45.40;56.90;;;;;;5073181;28;20251;-83
2023/08/04 11:47:36;;;;;;;1.85;1.48;;;46.50;58.10;;;;;;5059944;28;20235;-83
2023/08/04 11:50:26;;;;;;;5.22;1.00;;;47.30;55.30;;;;;;5076133;28;20309;-83
2023/08/04 11:53:16;;;;;;;3.17;1.30;;;46.60;54.50;;;;;;5080679;28;20230;-82
2023/08/04 11:56:07;;;;;;;3.95;1.13;;;48.10;51.20;;;;;;5070370;28;20248;-82
2023/08/04 11:59:13;;;;;;;2.53;1.00;;;48.50;49.60;;;;;;5080133;28;20352;-83
2023/08/04 12:02:06;;;;;;;2.72;1.20;;;45.20;48.00;;;;;;5074192;28;20223;-83
2023/08/04 12:05:07;;;;;;;3.15;1.25;;;48.70;47.40;;;;;;5087922;28;20448;-81
2023/08/04 12:07:58;;;;;;;1.75;1.00;;;49.40;47.60;;;;;;5054184;28;20682;-81
2023/08/04 12:11:01;;;;;;;1.60;1.10;;;47.90;46.30;;;;;;5045844;28;20340;-82
2023/08/04 12:13:50;;;;;;;2.50;1.30;;;48.40;45.00;;;;;;5053674;28;20227;-82
2023/08/04 12:16:55;;;;;;;2.15;1.23;;;47.00;46.30;;;;;;5060460;28;20242;-82
2023/08/04 12:19:44;;;;;;;2.70;1.30;;;47.60;44.70;;;;;;5059011;28;20232;-82
2023/08/04 12:22:35;;;;;;;1.63;1.10;;;48.80;43.70;;;;;;5044783;28;20294;-82
2023/08/04 12:25:26;;;;;;;4.35;1.30;;;48.50;44.80;;;;;;5059113;28;20655;-82
2023/08/04 12:28:15;;;;;;;1.60;1.10;;;45.50;44.30;;;;;;5047758;28;20258;-83
2023/08/04 12:31:05;;;;;;;1.35;0.90;;;49.10;45.00;;;;;;5052691;28;20302;-83
2023/08/04 12:34:05;;;;;;;2.42;1.30;;;41.50;46.90;;;;;;5047110;28;20234;-84
2023/08/04 12:36:53;;;;;;;8.07;1.35;;;37.50;52.50;;;;;;5043247;28;20572;-85
2023/08/04 12:39:45;;;;;;;3.17;1.20;;;38.30;51.80;;;;;;5045988;28;20251;-85
2023/08/04 12:42:35;;;;;;;2.63;1.20;;;35.30;56.50;;;;;;5064367;28;20235;-85
2023/08/04 12:45:24;;;;;;;2.05;1.38;;;34.00;59.20;;;;;;5047532;28;20250;-85
2023/08/04 12:48:13;;;;;;;1.80;1.10;;;33.20;61.20;;;;;;5037968;28;20234;-84
2023/08/04 12:51:02;;;;;;;1.52;0.98;;;32.40;62.50;;;;;;5059430;28;20223;-83
2023/08/04 12:53:51;;;;;;;3.58;1.10;;;31.50;65.50;;;;;;5072104;28;20270;-83
2023/08/04 12:56:39;;;;;;;2.00;1.00;;;30.80;67.30;;;;;;5066481;28;20238;-84
2023/08/04 12:59:32;;;;;;;4.63;1.33;;;30.60;69.20;;;;;;5055102;28;20224;-85
2023/08/04 13:02:21;;;;;;;3.08;1.00;;;30.40;72.60;;;;;;5072266;28;20234;-85
2023/08/04 13:05:09;;;;;;;1.88;1.30;;;30.20;75.00;;;;;;5060661;28;20215;-84
2023/08/04 13:07:59;;;;;;;1.40;1.23;;;29.90;75.00;;;;;;5079842;28;20309;-77
2023/08/04 13:10:47;;;;;;;2.20;1.30;;;29.50;74.10;;;;;;5078722;28;20474;-84
2023/08/04 13:13:37;;;;;;;4.03;1.23;;;29.40;75.90;;;;;;5069112;28;20224;-84
2023/08/04 13:16:27;;;;;;;1.70;1.10;;;29.40;75.80;;;;;;5063418;28;20226;-84
2023/08/04 13:19:16;;;;;;;1.50;1.20;;;29.30;74.60;;;;;;5076812;28;20721;-84
2023/08/04 13:22:05;;;;;;;2.08;1.10;;;29.10;77.00;;;;;;5081134;28;20253;-83
2023/08/04 13:24:57;;;;;;;1.52;1.30;;;29.10;77.60;;;;;;5096842;28;20574;-82
2023/08/04 13:27:46;;;;;;;4.30;1.48;;;29.10;79.80;;;;;;5077889;28;20969;-84
2023/08/04 13:30:36;;;;;;;3.22;1.35;;;29.10;78.40;;;;;;5071165;28;20636;-83
2023/08/04 13:33:26;;;;;;;4.72;1.25;;;29.00;80.00;;;;;;5068612;28;20223;-84
2023/08/04 13:36:15;;;;;;;1.75;1.40;;;28.90;79.00;;;;;;5078689;28;20211;-83
2023/08/04 13:39:04;;;;;;;3.33;1.20;;;28.90;79.10;;;;;;5074767;28;20219;-83
2023/08/04 13:41:54;;;;;;;2.00;1.20;;;28.80;78.70;;;;;;5082253;28;20231;-83
2023/08/04 13:44:43;;;;;;;2.55;1.40;;;28.70;80.40;;;;;;5069148;28;20725;-83
2023/08/04 13:47:31;;;;;;;2.15;1.35;;;28.60;83.10;;;;;;5087723;28;20275;-83
2023/08/04 13:50:22;;;;;;;6.25;1.30;;;28.80;80.80;;;;;;5088439;28;20296;-83
2023/08/04 13:53:11;;;;;;;3.55;1.38;;;28.80;80.90;;;;;;5070473;28;20218;-84
2023/08/04 13:56:02;;;;;;;2.65;1.63;;;28.80;80.60;;;;;;5073540;28;20877;-84
2023/08/04 13:58:51;;;;;;;5.15;1.30;;;28.60;80.90;;;;;;5070323;28;20597;-84
2023/08/04 14:01:41;;;;;;;3.53;1.30;;;28.60;82.30;;;;;;5075229;28;20705;-85
2023/08/04 14:04:29;;;;;;;2.63;1.13;;;28.60;82.60;;;;;;5072285;28;20226;-83
2023/08/04 14:07:20;;;;;;;2.17;1.30;;;28.60;80.00;;;;;;5062921;28;20332;-84
2023/08/04 14:10:10;;;;;;;2.67;1.23;;;28.60;81.70;;;;;;5080039;28;20223;-84
2023/08/04 14:13:06;;;;;;;4.28;1.25;;;28.60;83.50;;;;;;5070519;28;20915;-82
2023/08/04 14:15:56;;;;;;;1.52;1.00;;;28.60;80.60;;;;;;5070337;28;20242;-84
2023/08/04 14:18:45;;;;;;;5.00;1.73;;;28.50;77.80;;;;;;5058963;28;20306;-84
2023/08/04 14:21:34;;;;;;;4.75;3.10;;;28.30;77.70;;;;;;5078555;28;20235;-84
2023/08/04 14:24:24;;;;;;;1.98;1.23;;;28.20;80.70;;;;;;5080071;28;20238;-83
2023/08/04 14:27:13;;;;;;;1.73;1.00;;;28.20;79.00;;;;;;5076848;28;20223;-84
2023/08/04 14:30:19;;;;;;;2.85;1.65;;;28.10;80.60;;;;;;5068294;28;20219;-84
2023/08/04 14:33:08;;;;;;;2.80;1.10;;;28.20;80.90;;;;;;5074558;28;20218;-83
2023/08/04 14:35:57;;;;;;;1.65;1.10;;;28.30;81.00;;;;;;5071066;28;20219;-84
2023/08/04 14:38:46;;;;;;;1.42;0.82;;;28.40;79.00;;;;;;5077233;28;20556;-84
2023/08/04 14:41:36;;;;;;;1.80;1.00;;;28.30;78.70;;;;;;5058541;28;20344;-83
2023/08/04 14:44:25;;;;;;;1.98;1.00;;;28.30;79.50;;;;;;5079573;28;20230;-84
2023/08/04 14:47:14;;;;;;;1.23;1.13;;;28.40;77.90;;;;;;5064765;28;20239;-84